Nutol, Philippines
Current Conditions -  °F | °C
As of 9:00 PM on Tuesday 27 Jan 2015 (Local Time) from RPMD Reporting Station
Scattered Clouds Scattered Clouds  
Wind Chill: 79°   Ceiling: Unl
Heat Index: 82°   Visibility: 6mi
Dew Point: 73°   Wind: 5mph
Humidity: 83%   Direction: 360°N
Pressure: 29.83"   Gusts: NA
Location:  6.19°N, 125.14°E
Report Text: RPMD 271300Z 36004KT 9999 FEW016 SCT290 26/23 Q1010 A2983
Loading
Personal Weather Stations






























Interactive Weather Map New forecast layout! Learn more

10-Day Weather Forecast

Advertisements
Track Severe Weather on mobile